Time;durP1;ratioP1;P1;durP2;ratioP2;P2;SDS_P1;SDS_P2;PMS_P1;PMS_P2;Temp;Humidity;BMP_temperature;BMP_pressure;BME280_temperature;BME280_humidity;BME280_pressure;Samples;Min_cycle;Max_cycle;Signal;HPM_P1;HPM_P2
2022/10/27 00:00:29;;;;;;;7.77;4.37;;;;;;;11.53;100.00;101923.31;4985003;28;20243;-75
2022/10/27 00:02:55;;;;;;;7.80;4.33;;;;;;;12.56;100.00;102064.56;4984645;28;20503;-75
2022/10/27 00:05:21;;;;;;;12.33;4.80;;;;;;;12.20;100.00;102049.03;4995025;28;20190;-75
2022/10/27 00:07:47;;;;;;;8.70;4.40;;;;;;;11.56;100.00;101909.53;4990627;28;20177;-75
2022/10/27 00:10:12;;;;;;;9.70;4.53;;;;;;;12.44;100.00;102105.38;4993034;28;20433;-75
2022/10/27 00:12:37;;;;;;;6.87;4.10;;;;;;;12.74;100.00;102150.38;5004057;28;20456;-75
2022/10/27 00:15:03;;;;;;;6.10;3.60;;;;;;;12.91;100.00;102172.63;4985480;28;20563;-75
2022/10/27 00:17:29;;;;;;;7.87;4.37;;;;;;;11.69;100.00;101963.53;4995295;28;20642;-76
2022/10/27 00:19:54;;;;;;;8.20;4.70;;;;;;;10.91;100.00;101849.03;4994086;28;20657;-75
2022/10/27 00:22:19;;;;;;;10.70;4.73;;;;;;;12.02;100.00;102052.03;4997542;28;20177;-74
2022/10/27 00:24:45;;;;;;;14.00;4.47;;;;;;;12.14;100.00;102061.34;5000022;28;20197;-75
2022/10/27 00:27:10;;;;;;;8.50;4.10;;;;;;;11.83;100.00;101996.00;4995947;28;20592;-75
2022/10/27 00:29:36;;;;;;;7.80;4.27;;;;;;;11.65;100.00;101989.06;4994008;28;20599;-75
2022/10/27 00:32:01;;;;;;;13.70;5.30;;;;;;;11.25;100.00;101901.50;4991506;28;20221;-75
2022/10/27 00:34:27;;;;;;;10.33;5.03;;;;;;;12.05;100.00;102073.19;4990541;28;20221;-75
2022/10/27 00:36:52;;;;;;;6.47;3.83;;;;;;;11.43;100.00;101979.97;4992204;28;20182;-75
2022/10/27 00:39:18;;;;;;;10.73;4.77;;;;;;;12.78;100.00;102205.53;5009523;28;20192;-75
2022/10/27 00:41:44;;;;;;;6.13;4.03;;;;;;;11.72;100.00;102041.13;4992275;28;20187;-75
2022/10/27 00:44:28;;;;;;;9.57;4.70;;;;;;;13.06;100.00;102240.84;4988287;28;20267;-74
2022/10/27 00:49:37;;;;;;;7.77;4.47;;;;;;;11.62;100.00;102018.97;5032820;28;20482;-86
2022/10/27 00:52:07;;;;;;;7.37;4.60;;;;;;;11.74;100.00;102043.59;5045487;28;20534;-85
2022/10/27 00:54:40;;;;;;;8.40;4.90;;;;;;;12.94;100.00;102253.06;5043544;28;20442;-84
2022/10/27 00:57:08;;;;;;;6.83;4.50;;;;;;;12.09;100.00;102114.88;5040686;28;20437;-85
2022/10/27 00:59:36;;;;;;;7.40;5.33;;;;;;;10.97;100.00;101942.28;5022317;28;20465;-85
2022/10/27 01:02:02;;;;;;;9.73;4.70;;;;;;;11.21;100.00;102005.75;5019977;28;20434;-86
2022/10/27 01:04:55;;;;;;;11.60;5.40;;;;;;;12.80;100.00;102255.50;5021499;28;20459;-85
2022/10/27 01:07:22;;;;;;;7.53;5.13;;;;;;;11.92;100.00;102119.50;5004414;28;20455;-85
2022/10/27 01:09:49;;;;;;;6.40;4.73;;;;;;;12.14;100.00;102190.47;5022820;28;20439;-86
2022/10/27 01:12:18;;;;;;;8.07;4.60;;;;;;;11.04;100.00;102033.69;5008260;28;20526;-86
2022/10/27 01:14:44;;;;;;;8.97;5.77;;;;;;;10.71;100.00;101941.72;5007041;28;20439;-86
2022/10/27 01:17:28;;;;;;;7.60;5.20;;;;;;;12.65;100.00;102285.03;5019322;28;20529;-87
2022/10/27 01:19:56;;;;;;;9.13;4.70;;;;;;;12.63;100.00;102283.53;5020921;28;20526;-86
2022/10/27 01:22:44;;;;;;;7.93;4.73;;;;;;;10.69;100.00;101957.97;5022416;28;20441;-87
2022/10/27 01:25:34;;;;;;;12.97;4.37;;;;;;;12.69;100.00;102285.53;5019870;28;20450;-86
2022/10/27 01:28:14;;;;;;;10.03;4.40;;;;;;;12.74;100.00;102276.91;5015980;28;20466;-87
2022/10/27 01:31:08;;;;;;;7.50;3.80;;;;;;;12.74;100.00;102282.31;5020073;28;21228;-86
2022/10/27 01:33:58;;;;;;;8.33;4.23;;;;;;;12.74;100.00;102283.13;5006697;28;20428;-84
2022/10/27 01:36:37;;;;;;;11.17;5.73;;;;;;;12.78;100.00;102302.47;5024033;28;20427;-84
2022/10/27 01:39:07;;;;;;;7.70;5.17;;;;;;;10.45;100.00;101932.03;5017725;28;20542;-86
2022/10/27 01:41:42;;;;;;;5.80;3.83;;;;;;;12.83;100.00;102305.47;5012507;28;20557;-85
2022/10/27 01:44:16;;;;;;;5.77;3.70;;;;;;;12.35;100.00;102242.81;5019647;28;20443;-84
2022/10/27 01:46:45;;;;;;;7.00;4.30;;;;;;;10.85;100.00;102016.13;5009376;28;20439;-86
2022/10/27 01:49:11;;;;;;;5.37;4.00;;;;;;;10.70;100.00;102015.16;5019652;28;20963;-84
2022/10/27 01:51:36;;;;;;;5.63;3.73;;;;;;;11.25;100.00;102092.19;5023867;28;20588;-83
2022/10/27 01:54:03;;;;;;;6.97;3.53;;;;;;;11.15;100.00;102089.72;5023502;28;20194;-86
2022/10/27 01:56:42;;;;;;;7.97;4.20;;;;;;;12.72;100.00;102308.56;5023457;28;20649;-85
2022/10/27 01:59:40;;;;;;;13.43;5.23;;;;;;;12.61;100.00;102305.25;5004230;28;20884;-85
2022/10/27 02:02:27;;;;;;;7.97;4.33;;;;;;;12.70;100.00;102307.88;5017064;28;20427;-85
2022/10/27 02:05:06;;;;;;;8.33;4.57;;;;;;;11.85;100.00;102188.41;5020262;28;20439;-86
2022/10/27 02:08:09;;;;;;;6.50;4.53;;;;;;;12.54;100.00;102314.22;5002916;28;20462;-85
2022/10/27 02:10:45;;;;;;;9.60;4.50;;;;;;;11.66;100.00;102168.13;5015089;28;20487;-85
2022/10/27 02:13:11;;;;;;;9.90;5.63;;;;;;;10.35;100.00;101990.38;5016755;28;20446;-83
2022/10/27 02:15:45;;;;;;;10.07;5.40;;;;;;;9.99;100.00;101930.91;5005681;28;20447;-85
2022/10/27 02:18:27;;;;;;;7.80;4.60;;;;;;;12.07;100.00;102250.53;5019731;28;20490;-85
2022/10/27 02:20:57;;;;;;;9.53;5.33;;;;;;;12.45;100.00;102364.53;5001545;28;20447;-86
2022/10/27 02:23:23;;;;;;;9.97;6.20;;;;;;;11.18;100.00;102175.31;5022402;28;20461;-85
2022/10/27 02:26:03;;;;;;;10.50;6.00;;;;;;;12.47;100.00;102342.81;5022442;28;20431;-85
2022/10/27 02:28:46;;;;;;;10.90;6.20;;;;;;;10.29;100.00;101991.91;5019373;28;20284;-85
2022/10/27 02:31:17;;;;;;;8.27;5.33;;;;;;;10.95;100.00;102136.75;4996916;28;20478;-85
2022/10/27 02:33:43;;;;;;;8.37;5.70;;;;;;;10.95;100.00;102137.56;5002330;28;20814;-85
2022/10/27 02:36:09;;;;;;;10.37;5.30;;;;;;;11.47;100.00;102176.59;5021306;28;20443;-86
2022/10/27 02:38:34;;;;;;;14.57;6.07;;;;;;;11.02;100.00;102146.63;5008842;28;20474;-86
2022/10/27 02:41:03;;;;;;;8.53;5.70;;;;;;;11.16;100.00;102133.50;5004654;28;21283;-84
2022/10/27 02:43:29;;;;;;;9.93;4.97;;;;;;;10.61;100.00;102047.34;5018308;28;20186;-86
2022/10/27 02:45:54;;;;;;;7.43;5.07;;;;;;;11.67;100.00;102239.69;5019422;28;20451;-85
2022/10/27 02:48:20;;;;;;;6.60;4.77;;;;;;;10.99;100.00;102103.16;5018610;28;20666;-84
2022/10/27 02:50:46;;;;;;;9.20;5.17;;;;;;;11.81;100.00;102246.22;5020119;28;20197;-86
2022/10/27 02:53:11;;;;;;;6.40;4.77;;;;;;;12.42;100.00;102352.28;5036326;28;20217;-86
2022/10/27 02:55:37;;;;;;;10.10;4.80;;;;;;;10.95;100.00;102126.00;5030945;28;20187;-86
2022/10/27 02:58:02;;;;;;;8.87;5.27;;;;;;;11.84;100.00;102267.38;5041805;28;20201;-85
2022/10/27 03:00:28;;;;;;;8.30;5.80;;;;;;;10.33;100.00;102025.44;5022027;28;20189;-85
2022/10/27 03:02:54;;;;;;;11.20;5.27;;;;;;;11.49;100.00;102202.28;5020278;28;20201;-84
2022/10/27 03:05:19;;;;;;;8.13;5.90;;;;;;;11.45;100.00;102203.63;5019300;28;20243;-85
2022/10/27 03:07:45;;;;;;;9.17;5.57;;;;;;;12.42;100.00;102354.97;5002573;28;20239;-85
2022/10/27 03:10:11;;;;;;;13.03;6.10;;;;;;;10.93;100.00;102136.06;5015457;28;25112;-85
2022/10/27 03:12:36;;;;;;;8.40;5.97;;;;;;;10.19;100.00;102040.31;5017572;28;20220;-84
2022/10/27 03:15:02;;;;;;;9.27;5.70;;;;;;;11.05;100.00;102148.97;5018577;28;20658;-86
2022/10/27 03:17:32;;;;;;;8.73;5.70;;;;;;;11.39;100.00;102228.47;5014504;28;20237;-85
2022/10/27 03:19:58;;;;;;;10.53;5.70;;;;;;;10.21;100.00;102047.34;5019078;28;20268;-86
2022/10/27 03:22:24;;;;;;;8.53;5.60;;;;;;;11.05;100.00;102140.06;5020433;28;20523;-85
2022/10/27 03:24:49;;;;;;;9.10;6.20;;;;;;;10.24;100.00;102020.19;5018072;28;20231;-85
2022/10/27 03:27:15;;;;;;;13.00;7.47;;;;;;;11.32;100.00;102244.44;5021547;28;20212;-85
2022/10/27 03:29:40;;;;;;;10.27;5.80;;;;;;;11.09;100.00;102174.47;5019666;28;20189;-85
2022/10/27 03:32:06;;;;;;;7.77;6.00;;;;;;;10.96;100.00;102135.72;5018717;28;25105;-85
2022/10/27 03:34:31;;;;;;;9.33;6.00;;;;;;;10.86;100.00;102143.97;5017513;28;20237;-86
2022/10/27 03:36:57;;;;;;;11.17;7.10;;;;;;;11.85;100.00;102290.56;5017106;28;20194;-85
2022/10/27 03:39:23;;;;;;;10.50;6.23;;;;;;;10.79;100.00;102129.53;5018085;28;20295;-85
2022/10/27 03:41:48;;;;;;;6.10;5.43;;;;;;;10.39;100.00;102062.31;5019127;28;20285;-84
2022/10/27 03:44:13;;;;;;;6.60;5.80;;;;;;;10.30;100.00;102043.69;5016208;28;20191;-84
2022/10/27 03:46:39;;;;;;;11.47;6.57;;;;;;;10.73;100.00;102085.44;5017765;28;20911;-84
2022/10/27 03:49:05;;;;;;;7.60;6.57;;;;;;;10.23;100.00;102015.84;5015030;28;20311;-85
2022/10/27 03:51:31;;;;;;;8.60;6.43;;;;;;;10.56;100.00;102081.09;5017368;28;20207;-85
2022/10/27 03:53:56;;;;;;;13.93;6.40;;;;;;;11.14;100.00;102159.69;5017591;28;20181;-86
2022/10/27 03:56:22;;;;;;;11.70;6.60;;;;;;;12.54;100.00;102359.97;5021058;28;20195;-86
2022/10/27 03:58:50;;;;;;;7.57;5.90;;;;;;;11.74;100.00;102245.19;5021877;28;20456;-86
2022/10/27 04:01:16;;;;;;;8.73;5.70;;;;;;;10.32;100.00;101986.19;5018952;28;21713;-86
2022/10/27 04:03:42;;;;;;;8.73;5.80;;;;;;;11.61;100.00;102208.13;4998681;28;20935;-85
2022/10/27 04:06:07;;;;;;;14.03;6.10;;;;;;;10.77;100.00;102083.25;5015684;28;20264;-84
2022/10/27 04:08:33;;;;;;;11.10;5.73;;;;;;;11.91;100.00;102267.53;5016572;28;20593;-86
2022/10/27 04:10:58;;;;;;;8.77;6.50;;;;;;;10.52;100.00;102090.47;5004886;28;20204;-86
2022/10/27 04:13:24;;;;;;;8.60;5.83;;;;;;;11.90;100.00;102295.44;5020455;28;21015;-85
2022/10/27 04:15:49;;;;;;;6.60;6.00;;;;;;;10.74;100.00;102083.59;5015485;28;20182;-84
2022/10/27 04:18:15;;;;;;;9.83;5.97;;;;;;;11.50;100.00;102206.63;5019287;28;20217;-86
2022/10/27 04:20:41;;;;;;;11.00;5.97;;;;;;;10.69;100.00;102099.34;5022784;28;20192;-86
2022/10/27 04:23:06;;;;;;;10.60;5.90;;;;;;;11.90;100.00;102320.47;5001976;28;20195;-85
2022/10/27 04:25:32;;;;;;;9.50;6.33;;;;;;;10.77;100.00;102097.50;5018341;28;20723;-85
2022/10/27 04:28:07;;;;;;;11.40;6.63;;;;;;;10.55;100.00;102056.09;5018876;28;20220;-86
2022/10/27 04:30:35;;;;;;;9.17;6.10;;;;;;;10.39;100.00;102031.97;5001888;28;20860;-87
2022/10/27 04:33:02;;;;;;;7.50;6.07;;;;;;;12.49;100.00;102368.56;4996757;28;20462;-87
2022/10/27 04:35:28;;;;;;;8.63;5.87;;;;;;;11.63;100.00;102230.31;5016514;28;20532;-87
2022/10/27 04:37:58;;;;;;;8.57;6.50;;;;;;;10.76;100.00;102090.47;5018977;28;20506;-86
2022/10/27 04:40:24;;;;;;;9.90;6.20;;;;;;;10.59;100.00;102064.66;5020054;28;20441;-87
2022/10/27 04:42:49;;;;;;;12.73;6.90;;;;;;;11.45;100.00;102229.66;5020336;28;20432;-86
2022/10/27 04:45:15;;;;;;;10.40;5.93;;;;;;;11.34;100.00;102212.06;5020799;28;20816;-88
2022/10/27 04:47:42;;;;;;;7.60;6.10;;;;;;;12.49;100.00;102371.25;5018693;28;20249;-87
2022/10/27 04:50:10;;;;;;;9.80;6.43;;;;;;;10.59;100.00;102095.00;5014231;28;25153;-87
2022/10/27 04:52:35;;;;;;;6.50;5.60;;;;;;;10.21;100.00;102001.75;5016521;28;20475;-88
2022/10/27 04:55:01;;;;;;;12.63;6.13;;;;;;;12.47;100.00;102378.66;5016484;28;20533;-87
2022/10/27 04:57:27;;;;;;;7.10;5.13;;;;;;;12.46;100.00;102387.75;5021993;28;20200;-88
2022/10/27 04:59:52;;;;;;;7.80;5.50;;;;;;;12.41;100.00;102374.81;5022593;28;20193;-88
2022/10/27 05:02:18;;;;;;;5.33;4.80;;;;;;;10.94;100.00;102153.88;5020148;28;20185;-87
2022/10/27 05:04:44;;;;;;;7.07;6.23;;;;;;;11.00;100.00;102156.69;5010216;28;20554;-86
2022/10/27 05:07:09;;;;;;;6.77;5.20;;;;;;;10.56;100.00;102071.19;5004039;28;20197;-87
2022/10/27 05:09:35;;;;;;;7.43;5.53;;;;;;;11.80;100.00;102265.19;5022690;28;20233;-87
2022/10/27 05:12:00;;;;;;;7.70;4.77;;;;;;;10.57;100.00;102090.81;5002610;28;20719;-87
2022/10/27 05:14:26;;;;;;;9.47;5.83;;;;;;;11.23;100.00;102190.91;5020327;28;25086;-87
2022/10/27 05:16:51;;;;;;;5.43;4.90;;;;;;;10.28;100.00;102029.63;5015942;28;20683;-87
2022/10/27 05:19:17;;;;;;;8.90;5.17;;;;;;;11.75;100.00;102273.78;5006423;28;20301;-87
2022/10/27 05:21:43;;;;;;;6.50;4.90;;;;;;;11.12;100.00;102169.78;5020449;28;20563;-87
2022/10/27 05:24:08;;;;;;;5.80;5.20;;;;;;;11.07;100.00;102189.91;5002326;28;20218;-84
2022/10/27 05:26:34;;;;;;;7.73;4.77;;;;;;;10.63;100.00;102125.84;5025162;28;20243;-88
2022/10/27 05:28:59;;;;;;;6.97;4.60;;;;;;;10.92;100.00;102163.91;5014744;28;20691;-88
2022/10/27 05:31:28;;;;;;;6.80;5.40;;;;;;;11.45;100.00;102254.66;5002014;28;20221;-87
2022/10/27 05:33:54;;;;;;;6.90;5.00;;;;;;;9.92;100.00;102008.44;5018360;28;20189;-87
2022/10/27 05:36:19;;;;;;;8.27;5.73;;;;;;;10.39;100.00;102102.53;5003883;28;20433;-88
2022/10/27 05:38:45;;;;;;;7.30;4.43;;;;;;;12.31;100.00;102384.94;5023635;28;20243;-88
2022/10/27 05:41:11;;;;;;;8.90;5.30;;;;;;;12.27;100.00;102380.09;5019424;28;20182;-87
2022/10/27 05:43:38;;;;;;;7.20;4.70;;;;;;;10.63;100.00;102158.03;5021307;28;20804;-87
2022/10/27 05:46:04;;;;;;;5.37;4.07;;;;;;;10.88;100.00;102184.03;5021524;28;25113;-87
2022/10/27 05:48:30;;;;;;;8.13;5.40;;;;;;;11.94;100.00;102346.00;5021026;28;20483;-88
2022/10/27 05:50:55;;;;;;;6.97;5.53;;;;;;;9.85;100.00;102048.47;5020563;28;20475;-87
2022/10/27 05:53:21;;;;;;;10.97;6.30;;;;;;;12.12;100.00;102371.84;5004816;28;20195;-88
2022/10/27 05:55:47;;;;;;;11.20;5.27;;;;;;;10.97;100.00;102189.25;5019373;28;20671;-87
2022/10/27 05:58:12;;;;;;;6.63;5.00;;;;;;;10.18;100.00;102076.19;5002309;28;20249;-87
2022/10/27 06:00:38;;;;;;;7.30;4.80;;;;;;;11.19;100.00;102259.38;5019062;28;20186;-85
2022/10/27 06:03:06;;;;;;;6.47;5.00;;;;;;;10.79;100.00;102181.38;5014715;28;20555;-87
2022/10/27 06:05:35;;;;;;;8.90;5.60;;;;;;;12.11;100.00;102394.41;5023201;28;20184;-87
2022/10/27 06:08:01;;;;;;;7.83;5.50;;;;;;;11.18;100.00;102239.75;5006771;28;25146;-87
2022/10/27 06:10:30;;;;;;;8.97;5.07;;;;;;;10.00;100.00;102083.50;5021985;28;20602;-88
2022/10/27 06:13:06;;;;;;;8.30;5.70;;;;;;;11.87;100.00;102346.88;5024084;28;20504;-88
2022/10/27 06:15:34;;;;;;;10.17;5.40;;;;;;;9.88;100.00;102074.09;5003930;28;20475;-86
2022/10/27 06:18:01;;;;;;;8.10;5.10;;;;;;;10.91;100.00;102232.88;5000573;28;20590;-87
2022/10/27 06:20:26;;;;;;;6.90;4.77;;;;;;;11.20;100.00;102280.72;5022510;28;20458;-88
2022/10/27 06:22:52;;;;;;;6.67;5.30;;;;;;;11.56;100.00;102323.34;5003119;28;20521;-87
2022/10/27 06:25:17;;;;;;;5.50;5.00;;;;;;;10.98;100.00;102243.78;5018008;28;20182;-85
2022/10/27 06:27:43;;;;;;;6.63;5.37;;;;;;;11.09;100.00;102246.97;5017935;28;20202;-87
2022/10/27 06:30:09;;;;;;;8.80;5.17;;;;;;;10.68;100.00;102215.75;5021703;28;20649;-87
2022/10/27 06:32:39;;;;;;;8.20;5.50;;;;;;;11.44;100.00;102327.38;5018321;28;20234;-87
2022/10/27 06:35:06;;;;;;;10.13;6.07;;;;;;;11.68;100.00;102370.38;5004082;28;20268;-86
2022/10/27 06:37:31;;;;;;;8.47;5.60;;;;;;;10.71;100.00;102207.38;5022411;28;20851;-87
2022/10/27 06:39:57;;;;;;;7.93;5.00;;;;;;;9.87;100.00;102045.63;5022694;28;20461;-87
2022/10/27 06:42:23;;;;;;;9.00;5.73;;;;;;;9.75;100.00;102053.16;5021508;28;20200;-87
2022/10/27 06:44:49;;;;;;;5.70;5.10;;;;;;;11.44;100.00;102298.66;5005888;28;20650;-87
2022/10/27 06:47:14;;;;;;;6.93;4.93;;;;;;;10.22;100.00;102124.94;5004633;28;20451;-87
2022/10/27 06:49:40;;;;;;;6.50;4.90;;;;;;;11.20;100.00;102274.50;5005086;28;20185;-87
2022/10/27 06:54:33;;;;;;;9.97;5.20;;;;;;;12.17;100.00;102410.69;5032659;28;20227;-76
2022/10/27 06:56:58;;;;;;;5.80;5.20;;;;;;;12.23;100.00;102413.69;5047511;28;20438;-75
2022/10/27 06:59:24;;;;;;;6.17;4.77;;;;;;;12.31;100.00;102413.69;5047400;28;20692;-76
2022/10/27 07:01:49;;;;;;;6.43;5.47;;;;;;;12.36;100.00;102414.03;5048426;28;20793;-75
2022/10/27 07:04:17;;;;;;;7.73;4.63;;;;;;;12.49;100.00;102425.06;5027134;28;20783;-74
2022/10/27 07:06:43;;;;;;;6.73;4.30;;;;;;;12.47;100.00;102408.28;5046328;28;20187;-74
2022/10/27 07:09:10;;;;;;;5.40;4.57;;;;;;;12.38;100.00;102382.38;5045885;28;20469;-74
2022/10/27 07:11:36;;;;;;;8.07;5.30;;;;;;;12.31;100.00;102386.78;5046448;28;20702;-76
2022/10/27 07:14:01;;;;;;;7.63;5.47;;;;;;;12.60;100.00;102421.19;5025767;28;20531;-75
2022/10/27 07:16:26;;;;;;;7.27;4.97;;;;;;;12.63;100.00;102418.13;5046964;28;20491;-75
2022/10/27 07:18:52;;;;;;;7.40;5.80;;;;;;;12.26;100.00;102352.31;5047021;28;20216;-75
2022/10/27 07:21:17;;;;;;;10.93;5.27;;;;;;;12.67;100.00;102414.09;5045468;28;20254;-75
2022/10/27 07:23:43;;;;;;;8.70;4.83;;;;;;;12.29;100.00;102348.44;5046925;28;20204;-75
2022/10/27 07:26:08;;;;;;;12.30;4.93;;;;;;;12.79;100.00;102434.22;5037541;28;20184;-75
2022/10/27 07:28:33;;;;;;;8.77;5.27;;;;;;;12.28;100.00;102349.47;5046071;28;20201;-75
2022/10/27 07:30:59;;;;;;;5.33;4.83;;;;;;;12.37;100.00;102357.31;5046002;28;20695;-75
2022/10/27 07:33:24;;;;;;;8.37;5.50;;;;;;;12.47;100.00;102362.53;5048494;28;20269;-75
2022/10/27 07:35:51;;;;;;;6.70;5.00;;;;;;;12.68;100.00;102388.84;5029372;28;20239;-75
2022/10/27 07:38:17;;;;;;;7.10;4.90;;;;;;;12.87;100.00;102418.06;5044769;28;20208;-75
2022/10/27 07:40:43;;;;;;;8.07;5.30;;;;;;;12.82;100.00;102417.72;5047511;28;20450;-75
2022/10/27 07:43:09;;;;;;;5.43;4.40;;;;;;;12.98;100.00;102427.56;5026009;28;20450;-75
2022/10/27 07:45:37;;;;;;;12.30;4.53;;;;;;;12.97;100.00;102428.59;5034221;28;20183;-75
2022/10/27 07:48:03;;;;;;;5.97;4.40;;;;;;;13.00;100.00;102420.16;5042774;28;20525;-75
2022/10/27 07:50:31;;;;;;;6.50;4.77;;;;;;;13.02;100.00;102406.53;5027209;28;20545;-75
2022/10/27 07:52:57;;;;;;;6.90;4.47;;;;;;;12.69;100.00;102343.91;5038124;28;20941;-75
2022/10/27 07:55:25;;;;;;;6.50;5.00;;;;;;;12.64;100.00;102331.84;5023315;28;20469;-75
2022/10/27 07:58:08;;;;;;;7.73;4.60;;;;;;;13.29;100.00;102424.91;5024061;28;20661;-75
2022/10/27 08:00:37;;;;;;;11.00;5.70;;;;;;;13.27;100.00;102420.72;5044707;28;20442;-74
2022/10/27 08:03:04;;;;;;;6.60;4.77;;;;;;;12.77;100.00;102378.88;5046100;28;20423;-74
2022/10/27 08:05:33;;;;;;;5.43;4.37;;;;;;;13.38;100.00;102428.38;5047089;28;20789;-74
2022/10/27 08:08:03;;;;;;;6.43;4.60;;;;;;;13.23;100.00;102406.72;5025143;28;20436;-74
2022/10/27 08:10:32;;;;;;;7.60;4.87;;;;;;;13.36;100.00;102421.50;5046569;28;20473;-75
2022/10/27 08:12:58;;;;;;;7.10;4.73;;;;;;;13.31;100.00;102417.50;5044640;28;20430;-74
2022/10/27 08:15:23;;;;;;;6.47;4.30;;;;;;;13.48;100.00;102423.63;5030287;28;20496;-75
2022/10/27 08:17:58;;;;;;;12.00;5.83;;;;;;;13.38;100.00;102403.28;5026228;28;20175;-75
2022/10/27 08:20:24;;;;;;;6.70;5.00;;;;;;;13.57;100.00;102427.09;5045467;28;20745;-75
2022/10/27 08:22:54;;;;;;;7.23;4.80;;;;;;;13.70;100.00;102430.00;5042653;28;20467;-75
2022/10/27 08:25:20;;;;;;;9.27;5.07;;;;;;;13.72;100.00;102425.28;5030228;28;20892;-74
2022/10/27 08:27:45;;;;;;;6.10;4.50;;;;;;;13.81;100.00;102419.81;5027355;28;20422;-75
2022/10/27 08:30:10;;;;;;;6.30;4.53;;;;;;;13.96;100.00;102418.00;5028012;28;20207;-75
2022/10/27 08:32:36;;;;;;;10.10;5.90;;;;;;;13.78;100.00;102380.56;5049116;28;20214;-75
2022/10/27 08:35:01;;;;;;;5.20;4.30;;;;;;;14.12;100.00;102408.91;5032993;28;25140;-75
2022/10/27 08:37:27;;;;;;;11.73;6.10;;;;;;;13.94;100.00;102376.88;5020971;28;20254;-75
2022/10/27 08:39:52;;;;;;;9.03;5.20;;;;;;;13.79;100.00;102350.69;5031999;28;20199;-75
2022/10/27 08:42:36;;;;;;;8.57;5.47;;;;;;;14.22;100.00;102401.38;5033918;28;20189;-75
2022/10/27 08:45:08;;;;;;;7.90;5.70;;;;;;;14.48;100.00;102419.81;5046555;28;20181;-76
2022/10/27 08:47:33;;;;;;;10.77;6.23;;;;;;;14.39;100.00;102396.66;5029096;28;20429;-75
2022/10/27 08:50:19;;;;;;;7.67;4.90;;;;;;;14.67;100.00;102413.06;5027960;28;20528;-75
2022/10/27 08:52:53;;;;;;;10.10;6.07;;;;;;;14.64;100.00;102413.44;5049273;28;20209;-75
2022/10/27 08:55:23;;;;;;;9.50;6.67;;;;;;;14.65;100.00;102407.84;5051597;28;20569;-76
2022/10/27 08:57:59;;;;;;;6.87;5.43;;;;;;;14.66;100.00;102409.50;5048061;28;20418;-75
2022/10/27 09:00:28;;;;;;;8.70;6.33;;;;;;;14.74;100.00;102411.28;5032443;28;20442;-75
2022/10/27 09:03:35;;;;;;;10.03;6.40;;;;;;;14.82;100.00;102407.63;5031864;28;20426;-75
2022/10/27 09:06:10;;;;;;;10.90;6.70;;;;;;;14.81;100.00;102405.94;4970105;28;21011;-75
2022/10/27 09:09:03;;;;;;;10.60;6.37;;;;;;;14.82;100.00;102403.06;4970025;28;20448;-75
2022/10/27 09:11:48;;;;;;;9.63;6.60;;;;;;;14.84;100.00;102408.25;5046713;28;20466;-76
2022/10/27 09:14:16;;;;;;;7.80;5.93;;;;;;;14.91;100.00;102404.63;5046927;28;20417;-75
2022/10/27 09:16:48;;;;;;;10.70;6.87;;;;;;;14.89;100.00;102392.34;5047405;28;20426;-75
2022/10/27 09:19:28;;;;;;;10.13;6.60;;;;;;;15.01;100.00;102398.91;5032273;28;20446;-74
2022/10/27 09:21:54;;;;;;;9.70;6.10;;;;;;;15.13;100.00;102392.00;5029615;28;20906;-74
2022/10/27 09:24:25;;;;;;;7.57;6.03;;;;;;;15.29;100.00;102395.50;5051580;28;20459;-75
2022/10/27 09:26:52;;;;;;;9.90;6.20;;;;;;;15.32;100.00;102373.47;5047252;28;20670;-75
2022/10/27 09:29:19;;;;;;;8.40;6.13;;;;;;;15.56;100.00;102391.16;5047342;28;20450;-75
2022/10/27 09:32:23;;;;;;;9.10;6.37;;;;;;;15.64;100.00;102391.03;5032600;28;20991;-74
2022/10/27 09:34:54;;;;;;;6.87;5.53;;;;;;;15.80;100.00;102390.81;5045357;28;20459;-75
2022/10/27 09:37:20;;;;;;;11.30;7.33;;;;;;;15.51;100.00;102336.84;5031721;28;20462;-75
2022/10/27 09:39:51;;;;;;;11.47;6.40;;;;;;;15.91;100.00;102384.03;5031857;28;20473;-76
2022/10/27 09:42:17;;;;;;;10.40;6.30;;;;;;;15.96;100.00;102380.72;5047206;28;20176;-76
2022/10/27 09:44:53;;;;;;;10.03;6.30;;;;;;;16.18;100.00;102373.38;5046229;28;20430;-76
2022/10/27 09:47:22;;;;;;;9.30;5.40;;;;;;;16.26;100.00;102375.94;5024288;28;20448;-75
2022/10/27 09:49:49;;;;;;;10.83;6.33;;;;;;;16.12;100.00;102326.28;5036081;28;20749;-76
2022/10/27 09:52:21;;;;;;;9.30;5.80;;;;;;;16.17;100.00;102320.25;5026922;28;21056;-76
2022/10/27 09:54:54;;;;;;;8.00;5.87;;;;;;;16.50;100.00;102328.56;5050982;28;20992;-76
2022/10/27 09:57:25;;;;;;;11.00;6.07;;;;;;;16.63;100.00;102339.41;5050294;28;20423;-76
2022/10/27 10:00:03;;;;;;;7.63;5.87;;;;;;;16.62;100.00;102329.63;5031876;28;20542;-76
2022/10/27 10:02:32;;;;;;;11.07;5.53;;;;;;;16.54;100.00;102304.59;5050307;28;20418;-76
2022/10/27 10:04:59;;;;;;;11.57;5.67;;;;;;;16.60;100.00;102317.31;5032434;28;20434;-75
2022/10/27 10:07:36;;;;;;;6.90;4.93;;;;;;;16.60;100.00;102312.75;5049659;28;20418;-76
2022/10/27 10:10:25;;;;;;;7.27;5.00;;;;;;;16.37;100.00;102263.50;5031156;28;20446;-76
2022/10/27 10:13:12;;;;;;;8.97;5.40;;;;;;;16.58;100.00;102301.28;5029215;28;20461;-76
2022/10/27 10:15:47;;;;;;;8.60;5.70;;;;;;;16.63;100.00;102289.81;5049217;28;20422;-75
2022/10/27 10:18:25;;;;;;;11.10;5.50;;;;;;;16.69;100.00;102281.75;5047329;28;20507;-76
2022/10/27 10:21:07;;;;;;;6.97;5.10;;;;;;;16.70;100.00;102275.28;5025283;28;20429;-75
2022/10/27 10:23:36;;;;;;;6.63;4.43;;;;;;;16.09;100.00;102171.56;5049259;28;20872;-76
2022/10/27 10:26:04;;;;;;;9.30;5.33;;;;;;;16.68;100.00;102244.00;5050385;28;20427;-76
2022/10/27 10:28:32;;;;;;;12.27;6.13;;;;;;;16.70;100.00;102226.50;5048884;28;20412;-76
2022/10/27 10:30:59;;;;;;;9.00;5.00;;;;;;;16.91;100.00;102265.34;5049262;28;20522;-75
2022/10/27 10:33:31;;;;;;;9.23;5.20;;;;;;;16.78;100.00;102255.31;5049556;28;20442;-76
2022/10/27 10:35:57;;;;;;;7.33;5.43;;;;;;;16.85;100.00;102249.91;5049378;28;20414;-76
2022/10/27 10:38:22;;;;;;;6.23;5.37;;;;;;;16.85;100.00;102252.63;5031656;28;20430;-76
2022/10/27 10:41:15;;;;;;;8.33;4.43;;;;;;;16.77;100.00;102250.94;5049226;28;20492;-73
2022/10/27 10:43:42;;;;;;;9.17;5.50;;;;;;;16.88;100.00;102247.63;5049570;28;20222;-74
2022/10/27 10:46:22;;;;;;;8.67;5.10;;;;;;;16.97;100.00;102239.28;5048878;28;20571;-74
2022/10/27 10:48:55;;;;;;;10.83;5.07;;;;;;;17.01;100.00;102240.53;5041605;28;20487;-74
2022/10/27 10:51:30;;;;;;;7.77;4.87;;;;;;;16.73;100.00;102179.22;5047841;28;25114;-74
2022/10/27 10:54:05;;;;;;;6.60;4.13;;;;;;;17.25;100.00;102237.22;5045133;28;20462;-74
2022/10/27 10:56:33;;;;;;;5.70;3.80;;;;;;;17.24;100.00;102227.41;5043033;28;20885;-74
2022/10/27 10:59:08;;;;;;;10.97;4.47;;;;;;;17.20;100.00;102226.16;5045372;28;20527;-74
2022/10/27 11:02:02;;;;;;;8.33;4.90;;;;;;;17.18;100.00;102217.38;5043759;28;20486;-74
2022/10/27 11:04:39;;;;;;;6.13;4.53;;;;;;;17.18;100.00;102217.38;5034696;28;20516;-73
2022/10/27 11:07:15;;;;;;;8.93;4.53;;;;;;;17.19;100.00;102223.66;5010385;28;20437;-75
2022/10/27 11:09:52;;;;;;;7.80;4.80;;;;;;;17.49;100.00;102219.44;5021875;28;20530;-75
2022/10/27 11:12:28;;;;;;;6.87;4.40;;;;;;;17.70;100.00;102203.97;5019632;28;20461;-74
2022/10/27 11:14:58;;;;;;;6.50;3.70;;;;;;;17.44;100.00;102126.19;5015432;28;20457;-74
2022/10/27 11:17:26;;;;;;;7.93;4.33;;;;;;;17.99;100.00;102192.63;5043999;28;20435;-74
2022/10/27 11:19:53;;;;;;;5.23;4.40;;;;;;;17.77;100.00;102175.75;5036082;28;20465;-75
2022/10/27 11:22:20;;;;;;;9.20;4.70;;;;;;;17.84;100.00;102183.91;5029099;28;20429;-75
2022/10/27 11:24:51;;;;;;;5.27;3.63;;;;;;;17.91;100.00;102164.91;5047952;28;20428;-74
2022/10/27 11:27:24;;;;;;;9.00;3.90;;;;;;;18.10;100.00;102169.38;5047627;28;20437;-75
2022/10/27 11:30:03;;;;;;;6.30;3.10;;;;;;;18.34;100.00;102153.38;5047458;28;20959;-74